Springhill, Arkansas
Current Conditions -  °F | °C
As of 3:58 PM on Sunday 21 Dec 2014 (Local Time) from KLRF Reporting Station
Scattered Clouds Scattered Clouds  
Wind Chill: 53°   Ceiling: Unl
Heat Index: 53°   Visibility: 10mi
Dew Point: 37°   Wind: 6mph
Humidity: 55%   Direction: 120°ESE
Pressure: 29.99"   Gusts: NA
Location:  35.2494°N, 92.313°W
Report Text: KLRF 212158Z AUTO 12005KT 10SM SCT085 12/03 A2999 RMK AO2 SLP160 T01150027
Loading
Personal Weather Stations






























Interactive Weather Map New forecast layout! Learn more

10-Day Weather Forecast

Advertisements
Track Severe Weather on mobile